sensor_id;sensor_type;location;lat;lon;timestamp;P1;durP1;ratioP1;P2;durP2;ratioP2
22525;SDS011;11429;50.842;4.386;2023-01-09T00:02:19;4.95;;;1.00;;
22525;SDS011;11429;50.842;4.386;2023-01-09T00:04:44;4.43;;;1.02;;
22525;SDS011;11429;50.842;4.386;2023-01-09T00:07:10;3.13;;;1.08;;
22525;SDS011;11429;50.842;4.386;2023-01-09T00:09:35;2.65;;;1.15;;
22525;SDS011;11429;50.842;4.386;2023-01-09T00:12:01;2.03;;;0.80;;
22525;SDS011;11429;50.842;4.386;2023-01-09T00:14:27;2.30;;;1.08;;
22525;SDS011;11429;50.842;4.386;2023-01-09T00:16:53;4.65;;;1.10;;
22525;SDS011;11429;50.842;4.386;2023-01-09T00:19:19;2.97;;;1.15;;
22525;SDS011;11429;50.842;4.386;2023-01-09T00:21:45;4.32;;;1.10;;
22525;SDS011;11429;50.842;4.386;2023-01-09T00:24:10;4.28;;;1.15;;
22525;SDS011;11429;50.842;4.386;2023-01-09T00:26:36;3.78;;;1.35;;
22525;SDS011;11429;50.842;4.386;2023-01-09T00:29:02;4.07;;;1.27;;
22525;SDS011;11429;50.842;4.386;2023-01-09T00:31:27;3.67;;;1.02;;
22525;SDS011;11429;50.842;4.386;2023-01-09T00:36:18;4.63;;;1.35;;
22525;SDS011;11429;50.842;4.386;2023-01-09T00:38:44;3.72;;;1.30;;
22525;SDS011;11429;50.842;4.386;2023-01-09T00:41:11;4.30;;;1.15;;
22525;SDS011;11429;50.842;4.386;2023-01-09T00:43:42;4.78;;;0.98;;
22525;SDS011;11429;50.842;4.386;2023-01-09T00:46:10;3.15;;;1.27;;
22525;SDS011;11429;50.842;4.386;2023-01-09T00:48:38;5.28;;;1.20;;
22525;SDS011;11429;50.842;4.386;2023-01-09T00:51:06;2.28;;;1.20;;
22525;SDS011;11429;50.842;4.386;2023-01-09T00:53:32;3.10;;;1.10;;
22525;SDS011;11429;50.842;4.386;2023-01-09T00:56:02;6.35;;;1.30;;
22525;SDS011;11429;50.842;4.386;2023-01-09T00:58:31;4.07;;;1.10;;
22525;SDS011;11429;50.842;4.386;2023-01-09T01:00:59;5.15;;;1.35;;
22525;SDS011;11429;50.842;4.386;2023-01-09T01:03:25;3.63;;;1.20;;
22525;SDS011;11429;50.842;4.386;2023-01-09T01:05:51;4.85;;;1.15;;
22525;SDS011;11429;50.842;4.386;2023-01-09T01:08:35;5.53;;;1.10;;
22525;SDS011;11429;50.842;4.386;2023-01-09T01:11:05;3.70;;;1.20;;
22525;SDS011;11429;50.842;4.386;2023-01-09T01:13:37;5.43;;;1.40;;
22525;SDS011;11429;50.842;4.386;2023-01-09T01:16:05;2.47;;;1.00;;
22525;SDS011;11429;50.842;4.386;2023-01-09T01:18:32;3.15;;;1.00;;
22525;SDS011;11429;50.842;4.386;2023-01-09T01:20:58;4.35;;;0.90;;
22525;SDS011;11429;50.842;4.386;2023-01-09T01:23:23;4.57;;;1.10;;
22525;SDS011;11429;50.842;4.386;2023-01-09T01:25:49;4.28;;;1.13;;
22525;SDS011;11429;50.842;4.386;2023-01-09T01:28:15;5.22;;;1.00;;
22525;SDS011;11429;50.842;4.386;2023-01-09T01:30:42;4.93;;;0.90;;
22525;SDS011;11429;50.842;4.386;2023-01-09T01:33:08;3.95;;;1.13;;
22525;SDS011;11429;50.842;4.386;2023-01-09T01:35:34;3.95;;;1.13;;
22525;SDS011;11429;50.842;4.386;2023-01-09T01:38:00;4.38;;;0.90;;
22525;SDS011;11429;50.842;4.386;2023-01-09T01:40:26;5.63;;;1.30;;
22525;SDS011;11429;50.842;4.386;2023-01-09T01:42:52;5.63;;;1.40;;
22525;SDS011;11429;50.842;4.386;2023-01-09T01:45:19;2.92;;;1.05;;
22525;SDS011;11429;50.842;4.386;2023-01-09T01:53:04;8.13;;;0.90;;
22525;SDS011;11429;50.842;4.386;2023-01-09T01:55:41;8.25;;;1.90;;
22525;SDS011;11429;50.842;4.386;2023-01-09T01:58:23;3.03;;;0.90;;
22525;SDS011;11429;50.842;4.386;2023-01-09T02:00:50;8.30;;;1.48;;
22525;SDS011;11429;50.842;4.386;2023-01-09T02:03:17;4.10;;;1.08;;
22525;SDS011;11429;50.842;4.386;2023-01-09T02:05:44;3.95;;;1.25;;
22525;SDS011;11429;50.842;4.386;2023-01-09T02:08:10;8.80;;;1.42;;
22525;SDS011;11429;50.842;4.386;2023-01-09T02:10:36;7.28;;;1.23;;
22525;SDS011;11429;50.842;4.386;2023-01-09T02:13:03;6.00;;;0.95;;
22525;SDS011;11429;50.842;4.386;2023-01-09T02:15:40;7.35;;;1.30;;
22525;SDS011;11429;50.842;4.386;2023-01-09T02:18:21;4.35;;;0.90;;
22525;SDS011;11429;50.842;4.386;2023-01-09T02:20:57;3.08;;;0.95;;
22525;SDS011;11429;50.842;4.386;2023-01-09T02:42:02;6.72;;;1.08;;
22525;SDS011;11429;50.842;4.386;2023-01-09T02:44:36;8.70;;;0.90;;
22525;SDS011;11429;50.842;4.386;2023-01-09T02:49:31;5.25;;;1.13;;
22525;SDS011;11429;50.842;4.386;2023-01-09T02:52:01;4.40;;;1.20;;
22525;SDS011;11429;50.842;4.386;2023-01-09T03:02:37;7.65;;;1.70;;
22525;SDS011;11429;50.842;4.386;2023-01-09T03:05:29;5.20;;;1.20;;
22525;SDS011;11429;50.842;4.386;2023-01-09T03:13:25;4.70;;;1.58;;
22525;SDS011;11429;50.842;4.386;2023-01-09T03:15:57;4.68;;;1.38;;
22525;SDS011;11429;50.842;4.386;2023-01-09T03:18:27;6.25;;;1.50;;
22525;SDS011;11429;50.842;4.386;2023-01-09T03:20:55;7.38;;;1.38;;
22525;SDS011;11429;50.842;4.386;2023-01-09T03:23:21;4.43;;;0.93;;
22525;SDS011;11429;50.842;4.386;2023-01-09T03:25:47;5.55;;;1.30;;
22525;SDS011;11429;50.842;4.386;2023-01-09T03:28:30;5.97;;;1.10;;
22525;SDS011;11429;50.842;4.386;2023-01-09T03:30:56;4.90;;;1.00;;
22525;SDS011;11429;50.842;4.386;2023-01-09T03:33:22;8.68;;;1.10;;
22525;SDS011;11429;50.842;4.386;2023-01-09T03:35:47;5.85;;;1.25;;
22525;SDS011;11429;50.842;4.386;2023-01-09T03:38:13;4.03;;;0.90;;
22525;SDS011;11429;50.842;4.386;2023-01-09T03:40:39;5.88;;;1.33;;
22525;SDS011;11429;50.842;4.386;2023-01-09T03:43:07;5.68;;;1.02;;
22525;SDS011;11429;50.842;4.386;2023-01-09T03:45:32;7.20;;;1.35;;
22525;SDS011;11429;50.842;4.386;2023-01-09T03:47:58;6.38;;;1.33;;
22525;SDS011;11429;50.842;4.386;2023-01-09T03:50:24;10.00;;;1.30;;
22525;SDS011;11429;50.842;4.386;2023-01-09T03:52:49;8.85;;;1.60;;
22525;SDS011;11429;50.842;4.386;2023-01-09T03:55:15;8.95;;;1.52;;
22525;SDS011;11429;50.842;4.386;2023-01-09T03:57:41;5.88;;;1.20;;
22525;SDS011;11429;50.842;4.386;2023-01-09T04:00:06;6.88;;;1.10;;
22525;SDS011;11429;50.842;4.386;2023-01-09T04:02:33;7.18;;;1.35;;
22525;SDS011;11429;50.842;4.386;2023-01-09T04:04:59;7.07;;;1.50;;
22525;SDS011;11429;50.842;4.386;2023-01-09T04:07:24;7.60;;;1.15;;
22525;SDS011;11429;50.842;4.386;2023-01-09T04:09:50;8.07;;;1.55;;
22525;SDS011;11429;50.842;4.386;2023-01-09T04:12:16;10.57;;;1.77;;
22525;SDS011;11429;50.842;4.386;2023-01-09T04:14:41;8.95;;;1.50;;
22525;SDS011;11429;50.842;4.386;2023-01-09T04:17:07;6.47;;;1.13;;
22525;SDS011;11429;50.842;4.386;2023-01-09T04:19:32;7.45;;;1.55;;
22525;SDS011;11429;50.842;4.386;2023-01-09T04:21:58;10.30;;;1.65;;
22525;SDS011;11429;50.842;4.386;2023-01-09T04:24:24;7.80;;;1.40;;
22525;SDS011;11429;50.842;4.386;2023-01-09T04:26:49;6.68;;;1.40;;
22525;SDS011;11429;50.842;4.386;2023-01-09T04:29:15;11.05;;;2.08;;
22525;SDS011;11429;50.842;4.386;2023-01-09T04:31:40;8.18;;;1.48;;
22525;SDS011;11429;50.842;4.386;2023-01-09T04:34:06;10.00;;;1.77;;
22525;SDS011;11429;50.842;4.386;2023-01-09T04:36:32;10.18;;;1.75;;
22525;SDS011;11429;50.842;4.386;2023-01-09T04:38:59;7.95;;;1.65;;
22525;SDS011;11429;50.842;4.386;2023-01-09T04:41:25;9.23;;;2.00;;
22525;SDS011;11429;50.842;4.386;2023-01-09T04:44:10;7.18;;;1.40;;
22525;SDS011;11429;50.842;4.386;2023-01-09T04:46:35;5.85;;;1.55;;
22525;SDS011;11429;50.842;4.386;2023-01-09T04:49:01;8.25;;;1.90;;
22525;SDS011;11429;50.842;4.386;2023-01-09T04:51:26;11.38;;;1.80;;
22525;SDS011;11429;50.842;4.386;2023-01-09T04:53:52;9.60;;;1.63;;
22525;SDS011;11429;50.842;4.386;2023-01-09T04:56:18;8.18;;;1.80;;
22525;SDS011;11429;50.842;4.386;2023-01-09T04:58:43;7.82;;;1.98;;
22525;SDS011;11429;50.842;4.386;2023-01-09T05:01:09;12.38;;;1.77;;
22525;SDS011;11429;50.842;4.386;2023-01-09T05:03:35;9.27;;;2.03;;
22525;SDS011;11429;50.842;4.386;2023-01-09T05:06:00;8.75;;;1.48;;
22525;SDS011;11429;50.842;4.386;2023-01-09T05:08:26;7.53;;;1.67;;
22525;SDS011;11429;50.842;4.386;2023-01-09T05:10:51;10.13;;;1.92;;
22525;SDS011;11429;50.842;4.386;2023-01-09T05:13:17;6.28;;;1.52;;
22525;SDS011;11429;50.842;4.386;2023-01-09T05:15:42;10.60;;;1.75;;
22525;SDS011;11429;50.842;4.386;2023-01-09T05:18:08;8.05;;;1.42;;
22525;SDS011;11429;50.842;4.386;2023-01-09T05:20:34;7.95;;;1.55;;
22525;SDS011;11429;50.842;4.386;2023-01-09T05:23:01;4.88;;;1.35;;
22525;SDS011;11429;50.842;4.386;2023-01-09T05:25:26;9.15;;;1.67;;
22525;SDS011;11429;50.842;4.386;2023-01-09T05:27:52;11.77;;;1.90;;
22525;SDS011;11429;50.842;4.386;2023-01-09T05:30:18;5.75;;;1.80;;
22525;SDS011;11429;50.842;4.386;2023-01-09T05:32:44;8.07;;;1.60;;
22525;SDS011;11429;50.842;4.386;2023-01-09T05:35:10;6.57;;;1.40;;
22525;SDS011;11429;50.842;4.386;2023-01-09T05:37:35;8.20;;;1.50;;
22525;SDS011;11429;50.842;4.386;2023-01-09T05:40:01;6.28;;;1.70;;
22525;SDS011;11429;50.842;4.386;2023-01-09T05:42:27;8.70;;;2.03;;
22525;SDS011;11429;50.842;4.386;2023-01-09T05:44:52;8.02;;;1.50;;
22525;SDS011;11429;50.842;4.386;2023-01-09T05:47:18;7.00;;;1.55;;
22525;SDS011;11429;50.842;4.386;2023-01-09T05:49:44;7.00;;;1.30;;
22525;SDS011;11429;50.842;4.386;2023-01-09T05:52:09;7.38;;;1.38;;
22525;SDS011;11429;50.842;4.386;2023-01-09T05:54:35;9.15;;;1.58;;
22525;SDS011;11429;50.842;4.386;2023-01-09T05:57:01;6.38;;;1.35;;
22525;SDS011;11429;50.842;4.386;2023-01-09T05:59:27;6.32;;;1.17;;
22525;SDS011;11429;50.842;4.386;2023-01-09T06:01:52;6.90;;;1.73;;
22525;SDS011;11429;50.842;4.386;2023-01-09T06:04:18;6.82;;;1.30;;
22525;SDS011;11429;50.842;4.386;2023-01-09T06:06:44;9.63;;;1.35;;
22525;SDS011;11429;50.842;4.386;2023-01-09T06:09:10;8.32;;;1.38;;
22525;SDS011;11429;50.842;4.386;2023-01-09T06:11:36;7.32;;;1.52;;
22525;SDS011;11429;50.842;4.386;2023-01-09T06:14:03;7.05;;;1.30;;
22525;SDS011;11429;50.842;4.386;2023-01-09T06:16:29;6.22;;;1.00;;
22525;SDS011;11429;50.842;4.386;2023-01-09T06:18:55;7.05;;;1.60;;
22525;SDS011;11429;50.842;4.386;2023-01-09T06:21:21;6.47;;;1.17;;
22525;SDS011;11429;50.842;4.386;2023-01-09T06:23:48;8.35;;;1.20;;
22525;SDS011;11429;50.842;4.386;2023-01-09T06:26:13;5.50;;;1.35;;
22525;SDS011;11429;50.842;4.386;2023-01-09T06:28:39;5.07;;;0.88;;
22525;SDS011;11429;50.842;4.386;2023-01-09T06:31:05;6.50;;;1.67;;
22525;SDS011;11429;50.842;4.386;2023-01-09T06:33:30;9.02;;;1.50;;
22525;SDS011;11429;50.842;4.386;2023-01-09T06:35:56;5.15;;;1.02;;
22525;SDS011;11429;50.842;4.386;2023-01-09T06:38:22;8.52;;;1.50;;
22525;SDS011;11429;50.842;4.386;2023-01-09T06:40:48;6.22;;;1.10;;
22525;SDS011;11429;50.842;4.386;2023-01-09T06:43:14;4.75;;;1.15;;
22525;SDS011;11429;50.842;4.386;2023-01-09T06:45:41;5.30;;;1.50;;
22525;SDS011;11429;50.842;4.386;2023-01-09T06:48:07;4.22;;;0.95;;
22525;SDS011;11429;50.842;4.386;2023-01-09T06:50:33;8.00;;;1.30;;
22525;SDS011;11429;50.842;4.386;2023-01-09T06:52:59;7.93;;;1.55;;
22525;SDS011;11429;50.842;4.386;2023-01-09T06:55:25;5.25;;;1.48;;
22525;SDS011;11429;50.842;4.386;2023-01-09T06:57:51;7.05;;;1.25;;
22525;SDS011;11429;50.842;4.386;2023-01-09T07:00:17;6.13;;;1.20;;
22525;SDS011;11429;50.842;4.386;2023-01-09T07:02:43;6.13;;;1.10;;
22525;SDS011;11429;50.842;4.386;2023-01-09T07:05:09;5.20;;;1.42;;
22525;SDS011;11429;50.842;4.386;2023-01-09T07:07:36;5.10;;;1.20;;
22525;SDS011;11429;50.842;4.386;2023-01-09T07:10:03;4.55;;;0.98;;
22525;SDS011;11429;50.842;4.386;2023-01-09T07:12:29;6.22;;;1.30;;
22525;SDS011;11429;50.842;4.386;2023-01-09T07:14:55;5.95;;;0.90;;
22525;SDS011;11429;50.842;4.386;2023-01-09T07:17:20;4.20;;;0.95;;
22525;SDS011;11429;50.842;4.386;2023-01-09T07:19:46;9.20;;;1.73;;
22525;SDS011;11429;50.842;4.386;2023-01-09T07:22:11;5.28;;;1.13;;
22525;SDS011;11429;50.842;4.386;2023-01-09T07:24:59;6.72;;;1.38;;
22525;SDS011;11429;50.842;4.386;2023-01-09T07:27:25;5.20;;;1.20;;
22525;SDS011;11429;50.842;4.386;2023-01-09T07:29:51;7.25;;;1.20;;
22525;SDS011;11429;50.842;4.386;2023-01-09T07:32:17;5.60;;;1.17;;
22525;SDS011;11429;50.842;4.386;2023-01-09T07:34:43;3.80;;;0.98;;
22525;SDS011;11429;50.842;4.386;2023-01-09T07:37:09;8.65;;;1.38;;
22525;SDS011;11429;50.842;4.386;2023-01-09T07:39:34;9.10;;;1.30;;
22525;SDS011;11429;50.842;4.386;2023-01-09T07:42:00;7.40;;;1.38;;
22525;SDS011;11429;50.842;4.386;2023-01-09T07:44:26;7.93;;;1.70;;
22525;SDS011;11429;50.842;4.386;2023-01-09T07:46:51;8.18;;;1.42;;
22525;SDS011;11429;50.842;4.386;2023-01-09T07:49:17;6.68;;;1.38;;
22525;SDS011;11429;50.842;4.386;2023-01-09T07:51:43;8.35;;;1.80;;
22525;SDS011;11429;50.842;4.386;2023-01-09T07:54:10;6.35;;;1.60;;
22525;SDS011;11429;50.842;4.386;2023-01-09T07:56:37;8.43;;;2.10;;
22525;SDS011;11429;50.842;4.386;2023-01-09T07:59:04;4.75;;;1.42;;
22525;SDS011;11429;50.842;4.386;2023-01-09T08:01:30;5.93;;;2.28;;
22525;SDS011;11429;50.842;4.386;2023-01-09T08:03:55;9.63;;;2.38;;
22525;SDS011;11429;50.842;4.386;2023-01-09T08:06:21;8.90;;;2.03;;
22525;SDS011;11429;50.842;4.386;2023-01-09T08:08:47;8.70;;;2.08;;
22525;SDS011;11429;50.842;4.386;2023-01-09T08:11:13;10.02;;;1.70;;
22525;SDS011;11429;50.842;4.386;2023-01-09T08:13:38;12.35;;;1.85;;
22525;SDS011;11429;50.842;4.386;2023-01-09T08:16:05;8.32;;;1.60;;
22525;SDS011;11429;50.842;4.386;2023-01-09T08:18:31;6.32;;;1.60;;
22525;SDS011;11429;50.842;4.386;2023-01-09T08:20:59;8.60;;;2.00;;
22525;SDS011;11429;50.842;4.386;2023-01-09T08:23:25;9.23;;;2.05;;
22525;SDS011;11429;50.842;4.386;2023-01-09T08:25:51;9.18;;;2.00;;
22525;SDS011;11429;50.842;4.386;2023-01-09T08:28:18;8.80;;;1.75;;
22525;SDS011;11429;50.842;4.386;2023-01-09T08:30:43;9.25;;;1.60;;
22525;SDS011;11429;50.842;4.386;2023-01-09T08:33:10;6.32;;;1.35;;
22525;SDS011;11429;50.842;4.386;2023-01-09T08:35:36;5.85;;;1.25;;
22525;SDS011;11429;50.842;4.386;2023-01-09T08:38:02;11.35;;;1.83;;
22525;SDS011;11429;50.842;4.386;2023-01-09T08:40:28;5.65;;;1.80;;
22525;SDS011;11429;50.842;4.386;2023-01-09T08:42:53;6.50;;;1.30;;
22525;SDS011;11429;50.842;4.386;2023-01-09T08:45:39;4.88;;;1.00;;
22525;SDS011;11429;50.842;4.386;2023-01-09T08:48:23;4.63;;;1.05;;
22525;SDS011;11429;50.842;4.386;2023-01-09T08:50:49;7.03;;;0.90;;
22525;SDS011;11429;50.842;4.386;2023-01-09T08:53:15;3.85;;;0.90;;
22525;SDS011;11429;50.842;4.386;2023-01-09T08:55:41;4.78;;;0.98;;
22525;SDS011;11429;50.842;4.386;2023-01-09T08:58:07;7.82;;;0.95;;
22525;SDS011;11429;50.842;4.386;2023-01-09T09:00:34;2.25;;;0.75;;
22525;SDS011;11429;50.842;4.386;2023-01-09T09:02:59;3.78;;;1.50;;
22525;SDS011;11429;50.842;4.386;2023-01-09T09:05:26;2.17;;;0.63;;
22525;SDS011;11429;50.842;4.386;2023-01-09T09:07:54;4.05;;;0.70;;
22525;SDS011;11429;50.842;4.386;2023-01-09T09:10:21;5.03;;;0.75;;
22525;SDS011;11429;50.842;4.386;2023-01-09T09:12:49;2.28;;;0.70;;
22525;SDS011;11429;50.842;4.386;2023-01-09T09:15:17;2.45;;;0.52;;
22525;SDS011;11429;50.842;4.386;2023-01-09T09:17:56;3.53;;;0.63;;
22525;SDS011;11429;50.842;4.386;2023-01-09T09:20:24;3.38;;;0.63;;
22525;SDS011;11429;50.842;4.386;2023-01-09T09:22:52;4.57;;;0.60;;
22525;SDS011;11429;50.842;4.386;2023-01-09T09:25:18;3.35;;;0.68;;
22525;SDS011;11429;50.842;4.386;2023-01-09T09:27:44;4.68;;;1.35;;
22525;SDS011;11429;50.842;4.386;2023-01-09T09:30:11;3.22;;;0.80;;
22525;SDS011;11429;50.842;4.386;2023-01-09T09:32:40;5.13;;;0.88;;
22525;SDS011;11429;50.842;4.386;2023-01-09T09:35:06;3.78;;;0.80;;
22525;SDS011;11429;50.842;4.386;2023-01-09T09:37:32;5.22;;;0.90;;
22525;SDS011;11429;50.842;4.386;2023-01-09T09:39:58;4.80;;;1.10;;
22525;SDS011;11429;50.842;4.386;2023-01-09T09:45:49;2.50;;;0.88;;
22525;SDS011;11429;50.842;4.386;2023-01-09T09:48:37;6.72;;;1.20;;
22525;SDS011;11429;50.842;4.386;2023-01-09T09:51:20;3.83;;;1.00;;
22525;SDS011;11429;50.842;4.386;2023-01-09T09:54:24;1.05;;;0.70;;
22525;SDS011;11429;50.842;4.386;2023-01-09T09:56:58;3.78;;;0.93;;
22525;SDS011;11429;50.842;4.386;2023-01-09T09:59:34;2.65;;;0.82;;
22525;SDS011;11429;50.842;4.386;2023-01-09T10:07:23;3.50;;;0.68;;
22525;SDS011;11429;50.842;4.386;2023-01-09T10:09:56;4.97;;;0.70;;
22525;SDS011;11429;50.842;4.386;2023-01-09T10:12:32;4.85;;;1.00;;
22525;SDS011;11429;50.842;4.386;2023-01-09T10:15:17;3.50;;;0.85;;
22525;SDS011;11429;50.842;4.386;2023-01-09T10:17:49;3.55;;;0.90;;
22525;SDS011;11429;50.842;4.386;2023-01-09T10:34:50;3.35;;;1.27;;
22525;SDS011;11429;50.842;4.386;2023-01-09T10:37:39;1.85;;;0.80;;
22525;SDS011;11429;50.842;4.386;2023-01-09T10:40:19;3.83;;;0.95;;
22525;SDS011;11429;50.842;4.386;2023-01-09T10:42:59;2.40;;;0.75;;
22525;SDS011;11429;50.842;4.386;2023-01-09T10:45:51;1.85;;;0.80;;
22525;SDS011;11429;50.842;4.386;2023-01-09T10:50:51;2.33;;;0.80;;
22525;SDS011;11429;50.842;4.386;2023-01-09T10:53:31;1.15;;;0.70;;
22525;SDS011;11429;50.842;4.386;2023-01-09T10:56:06;4.63;;;1.10;;
22525;SDS011;11429;50.842;4.386;2023-01-09T10:58:43;3.65;;;0.93;;
22525;SDS011;11429;50.842;4.386;2023-01-09T11:01:08;2.50;;;0.68;;
22525;SDS011;11429;50.842;4.386;2023-01-09T11:03:34;2.50;;;1.08;;
22525;SDS011;11429;50.842;4.386;2023-01-09T11:06:02;1.98;;;1.20;;
22525;SDS011;11429;50.842;4.386;2023-01-09T11:08:39;4.53;;;2.28;;
22525;SDS011;11429;50.842;4.386;2023-01-09T11:11:08;3.38;;;1.13;;
22525;SDS011;11429;50.842;4.386;2023-01-09T11:13:35;2.38;;;0.98;;
22525;SDS011;11429;50.842;4.386;2023-01-09T11:18:55;9.15;;;1.52;;
22525;SDS011;11429;50.842;4.386;2023-01-09T11:21:28;3.85;;;1.58;;
22525;SDS011;11429;50.842;4.386;2023-01-09T11:24:17;2.92;;;1.00;;
22525;SDS011;11429;50.842;4.386;2023-01-09T11:26:49;3.08;;;1.10;;
22525;SDS011;11429;50.842;4.386;2023-01-09T11:29:18;3.15;;;0.98;;
22525;SDS011;11429;50.842;4.386;2023-01-09T11:31:55;3.80;;;1.65;;
22525;SDS011;11429;50.842;4.386;2023-01-09T11:34:32;5.35;;;1.20;;
22525;SDS011;11429;50.842;4.386;2023-01-09T11:39:31;2.80;;;1.48;;
22525;SDS011;11429;50.842;4.386;2023-01-09T11:42:02;3.67;;;1.48;;
22525;SDS011;11429;50.842;4.386;2023-01-09T11:44:33;6.32;;;1.60;;
22525;SDS011;11429;50.842;4.386;2023-01-09T11:46:59;5.45;;;1.95;;
22525;SDS011;11429;50.842;4.386;2023-01-09T11:49:27;3.88;;;1.23;;
22525;SDS011;11429;50.842;4.386;2023-01-09T11:57:13;6.60;;;1.75;;
22525;SDS011;11429;50.842;4.386;2023-01-09T11:59:39;6.45;;;1.55;;
22525;SDS011;11429;50.842;4.386;2023-01-09T12:26:32;4.38;;;1.45;;
22525;SDS011;11429;50.842;4.386;2023-01-09T12:32:35;7.00;;;1.90;;
22525;SDS011;11429;50.842;4.386;2023-01-09T12:38:27;7.15;;;1.85;;
22525;SDS011;11429;50.842;4.386;2023-01-09T12:41:15;7.20;;;1.77;;
22525;SDS011;11429;50.842;4.386;2023-01-09T12:46:30;5.82;;;1.70;;
22525;SDS011;11429;50.842;4.386;2023-01-09T12:49:15;7.85;;;2.15;;
22525;SDS011;11429;50.842;4.386;2023-01-09T12:52:12;8.80;;;2.70;;
22525;SDS011;11429;50.842;4.386;2023-01-09T12:54:44;10.07;;;3.42;;
22525;SDS011;11429;50.842;4.386;2023-01-09T12:57:21;8.50;;;2.58;;
22525;SDS011;11429;50.842;4.386;2023-01-09T12:59:57;6.68;;;2.30;;
22525;SDS011;11429;50.842;4.386;2023-01-09T13:05:25;9.30;;;2.45;;
22525;SDS011;11429;50.842;4.386;2023-01-09T13:08:04;10.20;;;2.45;;
22525;SDS011;11429;50.842;4.386;2023-01-09T13:10:45;7.10;;;2.22;;
22525;SDS011;11429;50.842;4.386;2023-01-09T13:16:19;11.45;;;2.20;;
22525;SDS011;11429;50.842;4.386;2023-01-09T13:18:58;9.07;;;2.25;;
22525;SDS011;11429;50.842;4.386;2023-01-09T13:21:32;8.93;;;2.53;;
22525;SDS011;11429;50.842;4.386;2023-01-09T13:24:00;12.23;;;3.00;;
22525;SDS011;11429;50.842;4.386;2023-01-09T13:26:46;8.80;;;2.92;;
22525;SDS011;11429;50.842;4.386;2023-01-09T13:29:31;15.52;;;2.60;;
22525;SDS011;11429;50.842;4.386;2023-01-09T13:34:59;11.13;;;3.55;;
22525;SDS011;11429;50.842;4.386;2023-01-09T13:37:27;8.13;;;2.75;;
22525;SDS011;11429;50.842;4.386;2023-01-09T13:39:57;13.48;;;4.47;;
22525;SDS011;11429;50.842;4.386;2023-01-09T13:42:25;5.70;;;2.22;;
22525;SDS011;11429;50.842;4.386;2023-01-09T13:45:10;9.48;;;3.05;;
22525;SDS011;11429;50.842;4.386;2023-01-09T13:47:36;7.70;;;1.92;;
22525;SDS011;11429;50.842;4.386;2023-01-09T13:52:40;8.65;;;2.42;;
22525;SDS011;11429;50.842;4.386;2023-01-09T13:57:43;12.50;;;3.38;;
22525;SDS011;11429;50.842;4.386;2023-01-09T14:02:56;13.43;;;3.53;;
22525;SDS011;11429;50.842;4.386;2023-01-09T14:08:22;14.60;;;2.70;;
22525;SDS011;11429;50.842;4.386;2023-01-09T14:10:52;9.48;;;2.60;;
22525;SDS011;11429;50.842;4.386;2023-01-09T14:16:05;10.45;;;2.70;;
22525;SDS011;11429;50.842;4.386;2023-01-09T14:19:03;13.48;;;2.83;;
22525;SDS011;11429;50.842;4.386;2023-01-09T14:21:53;10.20;;;2.83;;
22525;SDS011;11429;50.842;4.386;2023-01-09T14:24:42;11.73;;;3.42;;
22525;SDS011;11429;50.842;4.386;2023-01-09T14:27:47;12.45;;;3.25;;
22525;SDS011;11429;50.842;4.386;2023-01-09T14:30:16;12.10;;;2.25;;
22525;SDS011;11429;50.842;4.386;2023-01-09T14:43:44;12.65;;;2.72;;
22525;SDS011;11429;50.842;4.386;2023-01-09T14:46:17;9.82;;;2.25;;
22525;SDS011;11429;50.842;4.386;2023-01-09T14:48:54;9.00;;;1.88;;
22525;SDS011;11429;50.842;4.386;2023-01-09T14:51:25;11.55;;;2.55;;
22525;SDS011;11429;50.842;4.386;2023-01-09T14:53:53;8.68;;;2.10;;
22525;SDS011;11429;50.842;4.386;2023-01-09T14:56:25;7.80;;;1.98;;
22525;SDS011;11429;50.842;4.386;2023-01-09T14:59:07;8.98;;;1.95;;
22525;SDS011;11429;50.842;4.386;2023-01-09T15:01:36;7.45;;;2.47;;
22525;SDS011;11429;50.842;4.386;2023-01-09T15:04:04;9.13;;;2.60;;
22525;SDS011;11429;50.842;4.386;2023-01-09T15:06:41;8.17;;;1.50;;
22525;SDS011;11429;50.842;4.386;2023-01-09T15:11:48;6.82;;;1.90;;
22525;SDS011;11429;50.842;4.386;2023-01-09T15:16:57;10.65;;;1.75;;
22525;SDS011;11429;50.842;4.386;2023-01-09T15:19:27;6.05;;;2.38;;
22525;SDS011;11429;50.842;4.386;2023-01-09T15:22:02;6.85;;;2.10;;
22525;SDS011;11429;50.842;4.386;2023-01-09T15:24:30;7.20;;;2.10;;
22525;SDS011;11429;50.842;4.386;2023-01-09T15:27:01;7.10;;;2.03;;
22525;SDS011;11429;50.842;4.386;2023-01-09T15:29:28;7.53;;;1.80;;
22525;SDS011;11429;50.842;4.386;2023-01-09T15:31:57;6.55;;;2.20;;
22525;SDS011;11429;50.842;4.386;2023-01-09T15:34:28;6.07;;;1.67;;
22525;SDS011;11429;50.842;4.386;2023-01-09T15:36:54;7.47;;;1.80;;
22525;SDS011;11429;50.842;4.386;2023-01-09T15:39:24;6.97;;;1.67;;
22525;SDS011;11429;50.842;4.386;2023-01-09T15:41:57;8.68;;;2.13;;
22525;SDS011;11429;50.842;4.386;2023-01-09T15:44:43;6.82;;;1.95;;
22525;SDS011;11429;50.842;4.386;2023-01-09T15:47:23;8.27;;;2.00;;
22525;SDS011;11429;50.842;4.386;2023-01-09T15:49:53;9.05;;;2.10;;
22525;SDS011;11429;50.842;4.386;2023-01-09T15:52:20;7.25;;;2.40;;
22525;SDS011;11429;50.842;4.386;2023-01-09T15:54:47;7.07;;;2.00;;
22525;SDS011;11429;50.842;4.386;2023-01-09T15:59:55;9.00;;;2.63;;
22525;SDS011;11429;50.842;4.386;2023-01-09T16:02:42;7.45;;;1.90;;
22525;SDS011;11429;50.842;4.386;2023-01-09T16:05:27;7.97;;;2.30;;
22525;SDS011;11429;50.842;4.386;2023-01-09T16:07:55;8.52;;;2.35;;
22525;SDS011;11429;50.842;4.386;2023-01-09T16:12:47;13.52;;;2.47;;
22525;SDS011;11429;50.842;4.386;2023-01-09T16:15:16;8.15;;;2.60;;
22525;SDS011;11429;50.842;4.386;2023-01-09T16:20:59;8.65;;;3.05;;
22525;SDS011;11429;50.842;4.386;2023-01-09T16:26:13;6.93;;;2.50;;
22525;SDS011;11429;50.842;4.386;2023-01-09T16:28:43;10.85;;;3.17;;
22525;SDS011;11429;50.842;4.386;2023-01-09T16:34:05;13.23;;;3.60;;
22525;SDS011;11429;50.842;4.386;2023-01-09T16:36:34;8.00;;;2.50;;
22525;SDS011;11429;50.842;4.386;2023-01-09T16:39:00;8.93;;;2.80;;
22525;SDS011;11429;50.842;4.386;2023-01-09T16:41:28;11.68;;;3.13;;
22525;SDS011;11429;50.842;4.386;2023-01-09T16:44:13;9.52;;;2.72;;
22525;SDS011;11429;50.842;4.386;2023-01-09T16:46:39;10.80;;;3.45;;
22525;SDS011;11429;50.842;4.386;2023-01-09T16:49:16;9.70;;;3.20;;
22525;SDS011;11429;50.842;4.386;2023-01-09T16:51:47;12.85;;;3.60;;
22525;SDS011;11429;50.842;4.386;2023-01-09T16:54:14;9.70;;;2.70;;
22525;SDS011;11429;50.842;4.386;2023-01-09T16:56:40;8.85;;;2.85;;
22525;SDS011;11429;50.842;4.386;2023-01-09T16:59:12;9.68;;;2.80;;
22525;SDS011;11429;50.842;4.386;2023-01-09T17:01:40;9.52;;;2.92;;
22525;SDS011;11429;50.842;4.386;2023-01-09T17:04:10;7.63;;;2.85;;
22525;SDS011;11429;50.842;4.386;2023-01-09T17:06:37;9.52;;;2.72;;
22525;SDS011;11429;50.842;4.386;2023-01-09T17:09:04;7.07;;;2.97;;
22525;SDS011;11429;50.842;4.386;2023-01-09T17:11:31;9.63;;;3.13;;
22525;SDS011;11429;50.842;4.386;2023-01-09T17:13:57;9.93;;;3.00;;
22525;SDS011;11429;50.842;4.386;2023-01-09T17:16:23;8.57;;;3.05;;
22525;SDS011;11429;50.842;4.386;2023-01-09T17:18:48;7.85;;;3.17;;
22525;SDS011;11429;50.842;4.386;2023-01-09T17:21:16;9.65;;;4.10;;
22525;SDS011;11429;50.842;4.386;2023-01-09T17:23:44;7.80;;;3.67;;
22525;SDS011;11429;50.842;4.386;2023-01-09T17:26:13;12.80;;;3.65;;
22525;SDS011;11429;50.842;4.386;2023-01-09T17:29:00;8.05;;;3.35;;
22525;SDS011;11429;50.842;4.386;2023-01-09T17:31:26;11.35;;;4.25;;
22525;SDS011;11429;50.842;4.386;2023-01-09T17:33:52;10.32;;;4.07;;
22525;SDS011;11429;50.842;4.386;2023-01-09T17:38:48;9.40;;;4.20;;
22525;SDS011;11429;50.842;4.386;2023-01-09T17:41:18;8.85;;;4.00;;
22525;SDS011;11429;50.842;4.386;2023-01-09T17:43:48;10.55;;;4.07;;
22525;SDS011;11429;50.842;4.386;2023-01-09T17:46:15;10.70;;;4.40;;
22525;SDS011;11429;50.842;4.386;2023-01-09T17:48:43;9.40;;;3.80;;